createdAt,value
2022-11-24T00:01:07.008Z,99499.25
2022-11-24T00:03:34.023Z,99497.22
2022-11-24T00:06:08.598Z,99503.38
2022-11-24T00:08:36.473Z,99508.69
2022-11-24T00:11:14.911Z,99506.66
2022-11-24T00:13:42.186Z,99512.63
2022-11-24T00:16:16.707Z,99506.28
2022-11-24T00:18:45.603Z,99505.44
2022-11-24T00:21:13.641Z,99504.56
2022-11-24T00:23:41.015Z,99503.47
2022-11-24T00:26:18.826Z,99508.66
2022-11-24T00:28:47.485Z,99506.13
2022-11-24T00:31:23.147Z,99519.31
2022-11-24T00:33:51.678Z,99514.00
2022-11-24T00:36:20.220Z,99523.88
2022-11-24T00:38:47.705Z,99522.06
2022-11-24T00:41:14.837Z,99520.09
2022-11-24T00:43:41.678Z,99527.81
2022-11-24T00:46:08.636Z,99532.16
2022-11-24T00:48:35.610Z,99527.72
2022-11-24T00:51:05.779Z,99530.19
2022-11-24T00:53:33.254Z,99532.25
2022-11-24T00:56:00.227Z,99543.22
2022-11-24T00:58:27.026Z,99549.16
2022-11-24T01:00:53.807Z,99546.44
2022-11-24T01:03:21.471Z,99544.50
2022-11-24T01:05:48.794Z,99541.84
2022-11-24T01:08:15.927Z,99543.66
2022-11-24T01:10:42.774Z,99548.72
2022-11-24T01:13:09.807Z,99553.44
2022-11-24T01:15:36.907Z,99550.50
2022-11-24T01:18:04.621Z,99548.81
2022-11-24T01:20:32.039Z,99546.16
2022-11-24T01:22:58.966Z,99544.25
2022-11-24T01:25:25.790Z,99550.50
2022-11-24T01:27:52.786Z,99548.72
2022-11-24T01:30:19.815Z,99551.37
2022-11-24T01:32:46.655Z,99551.28
2022-11-24T01:35:13.481Z,99543.31
2022-11-24T01:37:40.387Z,99550.34
2022-11-24T01:40:08.158Z,99546.75
2022-11-24T01:42:51.643Z,99549.41
2022-11-24T01:45:40.816Z,99546.94
2022-11-24T01:48:23.205Z,99549.41
2022-11-24T01:51:24.367Z,99545.19
2022-11-24T01:53:56.580Z,99560.03
2022-11-24T01:56:24.170Z,99558.41
2022-11-24T01:58:52.471Z,99560.22
2022-11-24T02:01:19.391Z,99553.16
2022-11-24T02:03:46.967Z,99557.56
2022-11-24T02:06:18.155Z,99547.28
2022-11-24T02:08:58.493Z,99557.47
2022-11-24T02:11:28.428Z,99552.06
2022-11-24T02:13:55.337Z,99559.09
2022-11-24T02:16:22.362Z,99543.22
2022-11-24T02:18:49.659Z,99560.97
2022-11-24T02:21:17.113Z,99565.38
2022-11-24T02:23:46.893Z,99559.19
2022-11-24T02:26:25.794Z,99555.56
2022-11-24T02:28:53.119Z,99570.56
2022-11-24T02:31:19.940Z,99564.22
2022-11-24T02:33:47.509Z,99562.41
2022-11-24T02:36:14.280Z,99566.03
2022-11-24T02:38:41.149Z,99565.19
2022-11-24T02:41:11.305Z,99567.00
2022-11-24T02:43:45.283Z,99566.87
2022-11-24T02:46:12.151Z,99565.84
2022-11-24T02:48:39.407Z,99562.53
2022-11-24T02:51:06.313Z,99560.97
2022-11-24T02:53:33.252Z,99566.81
2022-11-24T02:56:00.071Z,99558.91
2022-11-24T02:58:27.038Z,99562.53
2022-11-24T03:00:55.154Z,99566.28
2022-11-24T03:03:22.317Z,99566.28
2022-11-24T03:05:49.345Z,99558.59
2022-11-24T03:08:16.420Z,99557.91
2022-11-24T03:10:43.210Z,99561.16
2022-11-24T03:13:10.086Z,99562.69
2022-11-24T03:15:37.439Z,99565.53
2022-11-24T03:18:05.284Z,99569.56
2022-11-24T03:20:32.607Z,99576.97
2022-11-24T03:22:59.432Z,99580.38
2022-11-24T03:25:26.276Z,99585.28
2022-11-24T03:27:53.286Z,99581.03
2022-11-24T03:30:20.488Z,99571.38
2022-11-24T03:32:47.384Z,99582.16
2022-11-24T03:35:14.283Z,99569.06
2022-11-24T03:37:41.157Z,99569.41
2022-11-24T03:40:09.031Z,99575.56
2022-11-24T03:42:36.054Z,99574.59
2022-11-24T03:45:23.081Z,99567.47
2022-11-24T03:47:53.159Z,99575.78
2022-11-24T03:50:20.016Z,99580.03
2022-11-24T03:52:46.931Z,99591.66
2022-11-24T03:55:13.817Z,99590.81
2022-11-24T03:57:40.661Z,99589.97
2022-11-24T04:00:08.582Z,99591.91
2022-11-24T04:02:35.460Z,99596.53
2022-11-24T04:05:02.279Z,99586.41
2022-11-24T04:07:29.204Z,99595.75
2022-11-24T04:09:56.149Z,99607.31
2022-11-24T04:12:41.473Z,99602.13
2022-11-24T04:15:08.768Z,99602.25
2022-11-24T04:17:35.707Z,99607.56
2022-11-24T04:20:02.611Z,99611.84
2022-11-24T04:22:29.544Z,99610.31
2022-11-24T04:24:56.443Z,99611.94
2022-11-24T04:27:23.340Z,99617.25
2022-11-24T04:29:51.121Z,99619.75
2022-11-24T04:32:17.967Z,99619.22
2022-11-24T04:34:44.945Z,99625.63
2022-11-24T04:37:11.962Z,99618.66
2022-11-24T04:39:38.964Z,99631.88
2022-11-24T04:42:06.437Z,99636.19
2022-11-24T04:44:33.476Z,99641.72
2022-11-24T04:47:01.354Z,99633.13
2022-11-24T04:49:28.388Z,99638.38
2022-11-24T04:51:55.209Z,99642.13
2022-11-24T04:54:21.989Z,99642.91
2022-11-24T04:56:52.303Z,99643.84
2022-11-24T04:59:19.749Z,99640.56
2022-11-24T05:01:47.259Z,99644.16
2022-11-24T05:04:15.613Z,99642.22
2022-11-24T05:06:42.914Z,99650.09
2022-11-24T05:09:14.651Z,99651.72
2022-11-24T05:11:41.863Z,99653.06
2022-11-24T05:14:08.661Z,99664.31
2022-11-24T05:16:36.017Z,99669.62
2022-11-24T05:19:02.887Z,99657.13
2022-11-24T05:21:30.006Z,99667.66
2022-11-24T05:23:57.078Z,99668.53
2022-11-24T05:26:23.922Z,99673.69
2022-11-24T05:28:50.795Z,99677.09
2022-11-24T05:31:17.805Z,99679.59
2022-11-24T05:33:45.690Z,99672.09
2022-11-24T05:36:32.417Z,99685.22
2022-11-24T05:38:59.662Z,99682.50
2022-11-24T05:41:26.792Z,99682.41
2022-11-24T05:43:53.704Z,99678.19
2022-11-24T05:46:20.531Z,99690.69
2022-11-24T05:48:47.344Z,99694.19
2022-11-24T05:51:14.163Z,99690.06
2022-11-24T05:53:41.001Z,99695.22
2022-11-24T05:56:08.154Z,99708.50
2022-11-24T05:58:35.152Z,99688.13
2022-11-24T06:01:06.317Z,99690.84
2022-11-24T06:03:33.374Z,99690.53
2022-11-24T06:06:00.228Z,99687.97
2022-11-24T06:08:31.102Z,99687.81
2022-11-24T06:11:17.597Z,99696.63
2022-11-24T06:13:46.101Z,99691.06
2022-11-24T06:16:13.431Z,99696.37
2022-11-24T06:18:40.833Z,99690.38
2022-11-24T06:21:11.170Z,99702.25
2022-11-24T06:23:39.902Z,99700.50
2022-11-24T06:26:07.053Z,99704.06
2022-11-24T06:28:33.880Z,99709.28
2022-11-24T06:31:05.028Z,99701.28
2022-11-24T06:33:36.470Z,99713.47
2022-11-24T06:36:06.035Z,99709.72
2022-11-24T06:38:33.055Z,99713.19
2022-11-24T06:41:01.119Z,99710.34
2022-11-24T06:43:29.422Z,99699.06
2022-11-24T06:45:57.070Z,99698.97
2022-11-24T06:48:24.764Z,99699.19
2022-11-24T06:50:52.282Z,99690.94
2022-11-24T06:53:19.565Z,99695.00
2022-11-24T06:55:47.237Z,99703.81
2022-11-24T06:58:14.068Z,99707.34
2022-11-24T07:00:41.075Z,99702.81
2022-11-24T07:03:14.241Z,99699.25
2022-11-24T07:05:41.161Z,99707.41
2022-11-24T07:08:10.044Z,99710.69
2022-11-24T07:10:38.947Z,99709.91
2022-11-24T07:13:08.907Z,99705.69
2022-11-24T07:15:35.723Z,99720.72
2022-11-24T07:18:02.566Z,99730.59
2022-11-24T07:20:29.505Z,99740.44
2022-11-24T07:22:57.408Z,99727.47
2022-11-24T07:25:25.314Z,99727.47
2022-11-24T07:27:58.979Z,99728.44
2022-11-24T07:30:27.065Z,99731.31
2022-11-24T07:33:00.786Z,99736.75
2022-11-24T07:35:28.577Z,99742.06
2022-11-24T07:37:59.222Z,99737.75
2022-11-24T07:40:27.013Z,99727.13
2022-11-24T07:42:54.486Z,99735.16
2022-11-24T07:45:21.555Z,99738.78
2022-11-24T07:47:48.467Z,99743.84
2022-11-24T07:50:15.374Z,99726.84
2022-11-24T07:52:42.306Z,99719.56
2022-11-24T07:55:09.847Z,99725.50
2022-11-24T07:57:36.994Z,99714.69
2022-11-24T08:00:05.734Z,99729.63
2022-11-24T08:02:33.548Z,99729.41
2022-11-24T08:05:00.424Z,99737.97
2022-11-24T08:07:27.456Z,99737.72
2022-11-24T08:09:54.487Z,99731.12
2022-11-24T08:12:21.833Z,99728.44
2022-11-24T08:14:49.940Z,99726.56
2022-11-24T08:17:17.850Z,99738.41
2022-11-24T08:19:44.790Z,99738.75
2022-11-24T08:22:12.025Z,99749.91
2022-11-24T08:24:39.003Z,99762.97
2022-11-24T08:27:05.863Z,99772.72
2022-11-24T08:29:32.719Z,99784.22
2022-11-24T08:31:59.689Z,99774.34
2022-11-24T08:34:29.786Z,99772.72
2022-11-24T08:36:56.650Z,99769.12
2022-11-24T08:39:23.529Z,99769.12
2022-11-24T08:41:50.360Z,99781.06
2022-11-24T08:44:18.280Z,99780.06
2022-11-24T08:46:45.490Z,99763.75
2022-11-24T08:49:16.871Z,99763.81
2022-11-24T08:51:43.765Z,99778.25
2022-11-24T08:54:13.478Z,99784.81
2022-11-24T08:56:40.392Z,99789.22
2022-11-24T08:59:07.923Z,99785.84
2022-11-24T09:01:35.117Z,99789.56
2022-11-24T09:04:02.076Z,99792.22
2022-11-24T09:06:32.416Z,99793.59
2022-11-24T09:09:00.020Z,99796.25
2022-11-24T09:11:28.658Z,99796.31
2022-11-24T09:13:55.856Z,99805.19
2022-11-24T09:16:26.057Z,99800.38
2022-11-24T09:19:01.177Z,99788.72
2022-11-24T09:21:29.439Z,99801.84
2022-11-24T09:23:56.546Z,99806.22
2022-11-24T09:26:26.275Z,99812.34
2022-11-24T09:28:54.655Z,99792.91
2022-11-24T09:31:26.753Z,99808.19
2022-11-24T09:33:54.377Z,99822.19
2022-11-24T09:36:21.877Z,99820.31
2022-11-24T09:38:49.047Z,99821.09
2022-11-24T09:41:34.210Z,99821.09
2022-11-24T09:44:25.663Z,99818.44
2022-11-24T09:47:01.513Z,99810.66
2022-11-24T09:49:38.102Z,99822.16
2022-11-24T09:52:10.706Z,99825.53
2022-11-24T09:54:41.400Z,99821.84
2022-11-24T09:57:12.192Z,99800.03
2022-11-24T09:59:41.006Z,99817.47
2022-11-24T10:02:13.103Z,99801.94
2022-11-24T10:04:43.023Z,99825.28
2022-11-24T10:07:25.044Z,99827.09
2022-11-24T10:10:07.031Z,99820.63
2022-11-24T10:13:05.991Z,99824.31
2022-11-24T10:15:46.170Z,99821.75
2022-11-24T10:18:46.423Z,99833.78
2022-11-24T10:21:39.383Z,99834.81
2022-11-24T10:24:09.114Z,99826.41
2022-11-24T10:26:38.131Z,99835.88
2022-11-24T10:29:36.965Z,99827.19
2022-11-24T10:32:06.899Z,99824.19
2022-11-24T10:35:00.825Z,99824.00
2022-11-24T10:37:35.799Z,99825.78
2022-11-24T10:40:40.624Z,99829.00
2022-11-24T10:43:10.247Z,99843.06
2022-11-24T10:45:39.239Z,99847.19
2022-11-24T10:48:18.871Z,99828.47
2022-11-24T10:50:45.650Z,99829.09
2022-11-24T10:53:22.831Z,99826.81
2022-11-24T10:55:58.817Z,99828.63
2022-11-24T10:58:38.039Z,99839.28
2022-11-24T11:01:14.304Z,99823.13
2022-11-24T11:03:58.787Z,99831.72
2022-11-24T11:06:28.401Z,99845.47
2022-11-24T11:09:07.269Z,99850.38
2022-11-24T11:11:39.339Z,99857.00
2022-11-24T11:14:07.351Z,99851.06
2022-11-24T11:16:36.214Z,99857.94
2022-11-24T11:19:50.821Z,99851.50
2022-11-24T11:22:25.935Z,99873.81
2022-11-24T11:25:10.919Z,99868.25
2022-11-24T11:27:39.030Z,99876.12
2022-11-24T11:36:11.434Z,99877.97
2022-11-24T11:38:39.950Z,99883.97
2022-11-24T11:41:17.681Z,99871.34
2022-11-24T11:43:45.897Z,99869.34
2022-11-24T11:46:16.385Z,99873.31
2022-11-24T11:48:47.181Z,99868.94
2022-11-24T11:51:35.472Z,99876.31
2022-11-24T11:54:20.177Z,99864.78
2022-11-24T11:57:03.123Z,99861.84
2022-11-24T12:00:05.079Z,99858.03
2022-11-24T12:02:52.913Z,99853.50
2022-11-24T12:05:29.337Z,99863.63
2022-11-24T12:08:21.462Z,99852.28
2022-11-24T12:11:07.747Z,99846.78
2022-11-24T12:13:43.559Z,99846.78
2022-11-24T12:16:42.506Z,99848.41
2022-11-24T12:19:27.740Z,99853.63
2022-11-24T12:22:29.800Z,99859.06
2022-11-24T12:25:03.609Z,99854.75
2022-11-24T12:27:50.511Z,99854.09
2022-11-24T12:30:18.916Z,99872.16
2022-11-24T12:33:01.652Z,99888.25
2022-11-24T12:35:46.840Z,99895.66
2022-11-24T12:38:42.972Z,99887.06
2022-11-24T12:41:48.320Z,99879.31
2022-11-24T12:44:37.139Z,99899.09
2022-11-24T12:47:15.976Z,99901.87
2022-11-24T12:49:52.484Z,99909.94
2022-11-24T12:52:26.300Z,99908.41
2022-11-24T12:54:53.207Z,99901.09
2022-11-24T12:57:32.574Z,99903.56
2022-11-24T13:00:08.404Z,99914.91
2022-11-24T13:02:56.915Z,99927.88
2022-11-24T13:05:55.053Z,99914.91
2022-11-24T13:08:23.114Z,99917.81
2022-11-24T13:10:58.038Z,99916.69
2022-11-24T13:13:57.496Z,99920.09
2022-11-24T13:16:53.461Z,99924.34
2022-11-24T13:19:17.196Z,99926.16
2022-11-24T13:21:45.529Z,99936.72
2022-11-24T13:24:19.694Z,99931.31
2022-11-24T13:27:13.200Z,99950.34
2022-11-24T13:29:42.095Z,99946.09
2022-11-24T13:32:09.143Z,99961.16
2022-11-24T13:34:38.974Z,99952.63
2022-11-24T13:37:32.135Z,99963.47
2022-11-24T13:40:11.721Z,99968.81
2022-11-24T13:43:02.286Z,99986.72
2022-11-24T13:45:45.232Z,99983.34
2022-11-24T13:48:21.981Z,99988.84
2022-11-24T13:50:58.540Z,99989.69
2022-11-24T13:53:41.001Z,99992.66
2022-11-24T13:56:13.998Z,99996.34
2022-11-24T13:59:03.504Z,99988.44
2022-11-24T14:01:36.430Z,100001.06
2022-11-24T14:07:13.251Z,99988.84
2022-11-24T14:09:49.936Z,100002.84
2022-11-24T14:12:20.305Z,100007.22
2022-11-24T14:14:49.478Z,100010.31
2022-11-24T14:17:16.187Z,100012.97
2022-11-24T14:19:45.076Z,100030.00
2022-11-24T14:22:18.007Z,100023.87
2022-11-24T14:24:46.468Z,100031.09
2022-11-24T14:27:17.926Z,100022.34
2022-11-24T14:29:56.030Z,100026.78
2022-11-24T14:32:23.221Z,100014.59
2022-11-24T14:34:52.044Z,100030.63
2022-11-24T14:37:20.136Z,100022.63
2022-11-24T14:39:47.624Z,100028.84
2022-11-24T14:42:22.592Z,100036.06
2022-11-24T14:44:54.378Z,100039.69
2022-11-24T14:47:36.246Z,100033.63
2022-11-24T14:50:15.541Z,100047.72
2022-11-24T14:52:46.431Z,100050.50
2022-11-24T14:55:35.215Z,100049.59
2022-11-24T14:58:02.134Z,100064.66
2022-11-24T15:00:31.530Z,100050.56
2022-11-24T15:03:01.321Z,100056.56
2022-11-24T15:05:53.208Z,100056.50
2022-11-24T15:08:20.014Z,100061.06
2022-11-24T15:10:47.065Z,100072.66
2022-11-24T15:13:18.156Z,100082.50
2022-11-24T15:15:51.278Z,100059.41
2022-11-24T15:18:37.937Z,100072.56
2022-11-24T15:21:05.039Z,100083.38
2022-11-24T15:23:33.211Z,100076.19
2022-11-24T15:26:02.789Z,100086.03
2022-11-24T15:28:31.127Z,100054.94
2022-11-24T15:31:03.026Z,100087.00
2022-11-24T15:33:30.981Z,100088.84
2022-11-24T15:35:59.363Z,100082.59
2022-11-24T15:38:27.996Z,100085.41
2022-11-24T15:40:56.098Z,100084.37
2022-11-24T15:43:30.005Z,100078.47
2022-11-24T15:45:57.527Z,100090.66
2022-11-24T15:48:24.482Z,100087.16
2022-11-24T15:50:52.186Z,100091.53
2022-11-24T15:53:21.919Z,100086.44
2022-11-24T15:55:49.360Z,100083.78
2022-11-24T15:58:16.857Z,100086.44
2022-11-24T16:00:44.278Z,100079.88
2022-11-24T16:03:44.445Z,100085.19
2022-11-24T16:05:58.710Z,100098.66
2022-11-24T16:08:25.571Z,100093.19
2022-11-24T16:10:52.671Z,100101.47
2022-11-24T16:13:19.586Z,100106.81
2022-11-24T16:15:47.189Z,100112.28
2022-11-24T16:18:14.053Z,100121.28
2022-11-24T16:20:40.952Z,100131.22
2022-11-24T16:23:07.797Z,100130.53
2022-11-24T16:25:34.628Z,100139.53
2022-11-24T16:28:01.648Z,100145.06
2022-11-24T16:30:28.756Z,100143.41
2022-11-24T16:32:55.627Z,100150.62
2022-11-24T16:35:22.452Z,100149.63
2022-11-24T16:37:49.677Z,100146.34
2022-11-24T16:40:18.215Z,100166.66
2022-11-24T16:42:45.050Z,100150.69
2022-11-24T16:45:13.086Z,100166.72
2022-11-24T16:47:41.809Z,100163.25
2022-11-24T16:50:10.205Z,100156.28
2022-11-24T16:52:38.137Z,100166.06
2022-11-24T16:55:06.531Z,100164.19
2022-11-24T16:57:33.853Z,100158.94
2022-11-24T17:00:00.840Z,100164.34
2022-11-24T17:02:27.890Z,100165.34
2022-11-24T17:04:54.895Z,100170.19
2022-11-24T17:07:22.154Z,100172.75
2022-11-24T17:09:49.379Z,100164.91
2022-11-24T17:12:16.562Z,100166.00
2022-11-24T17:14:52.709Z,100164.16
2022-11-24T17:17:31.089Z,100162.41
2022-11-24T17:19:58.381Z,100173.34
2022-11-24T17:22:25.488Z,100176.81
2022-11-24T17:24:52.601Z,100178.59
2022-11-24T17:27:19.527Z,100189.37
2022-11-24T17:29:48.900Z,100178.59
2022-11-24T17:32:15.833Z,100197.28
2022-11-24T17:34:43.035Z,100193.19
2022-11-24T17:37:09.997Z,100197.72
2022-11-24T17:39:37.109Z,100192.41
2022-11-24T17:42:04.657Z,100197.72
2022-11-24T17:44:32.255Z,100201.53
2022-11-24T17:47:00.905Z,100196.34
2022-11-24T17:49:28.098Z,100199.09
2022-11-24T17:51:55.404Z,100184.34
2022-11-24T17:57:09.630Z,100196.81
2022-11-24T17:59:36.893Z,100208.50
2022-11-24T18:02:04.555Z,100206.97
2022-11-24T18:04:31.730Z,100210.22
2022-11-24T18:06:58.791Z,100216.66
2022-11-24T18:09:25.935Z,100220.25
2022-11-24T18:11:52.814Z,100223.13
2022-11-24T18:14:19.842Z,100233.84
2022-11-24T18:16:46.867Z,100237.63
2022-11-24T18:19:14.104Z,100251.91
2022-11-24T18:21:42.326Z,100250.25
2022-11-24T18:24:10.353Z,100256.50
2022-11-24T18:26:38.659Z,100256.38
2022-11-24T18:29:05.787Z,100249.38
2022-11-24T18:31:36.196Z,100260.03
2022-11-24T18:34:05.637Z,100268.03
2022-11-24T18:36:33.303Z,100266.31
2022-11-24T18:39:06.857Z,100276.97
2022-11-24T18:41:34.442Z,100273.44
2022-11-24T18:44:08.129Z,100282.41
2022-11-24T18:46:36.123Z,100270.25
2022-11-24T18:49:04.322Z,100276.97
2022-11-24T18:51:31.591Z,100281.41
2022-11-24T18:53:58.689Z,100280.59
2022-11-24T18:56:26.362Z,100285.19
2022-11-24T18:58:55.245Z,100288.00
2022-11-24T19:01:25.719Z,100301.31
2022-11-24T19:03:58.142Z,100292.62
2022-11-24T19:06:34.021Z,100301.53
2022-11-24T19:09:04.697Z,100307.03
2022-11-24T19:11:35.974Z,100305.44
2022-11-24T19:14:05.528Z,100295.84
2022-11-24T19:16:34.096Z,100311.75
2022-11-24T19:19:02.995Z,100320.78
2022-11-24T19:21:32.592Z,100326.97
2022-11-24T19:24:04.474Z,100335.06
2022-11-24T19:26:32.835Z,100336.16
2022-11-24T19:29:00.520Z,100345.03
2022-11-24T19:31:27.690Z,100343.06
2022-11-24T19:33:55.893Z,100340.53
2022-11-24T19:36:23.525Z,100353.00
2022-11-24T19:38:52.745Z,100350.44
2022-11-24T19:41:21.845Z,100342.63
2022-11-24T19:43:49.766Z,100351.25
2022-11-24T19:46:18.183Z,100352.87
2022-11-24T19:48:48.526Z,100344.88
2022-11-24T19:51:16.934Z,100360.94
2022-11-24T19:53:45.196Z,100351.03
2022-11-24T19:56:17.322Z,100352.03
2022-11-24T19:58:45.675Z,100360.06
2022-11-24T20:01:18.628Z,100369.97
2022-11-24T20:03:49.291Z,100371.94
2022-11-24T20:06:16.722Z,100369.44
2022-11-24T20:08:44.122Z,100381.56
2022-11-24T20:11:14.178Z,100386.00
2022-11-24T20:13:42.464Z,100381.50
2022-11-24T20:16:15.161Z,100393.09
2022-11-24T20:18:44.024Z,100393.09
2022-11-24T20:21:12.211Z,100398.25
2022-11-24T20:23:40.134Z,100398.34
2022-11-24T20:26:10.283Z,100401.75
2022-11-24T20:28:37.977Z,100404.38
2022-11-24T20:31:08.587Z,100406.13
2022-11-24T20:33:36.099Z,100409.56
2022-11-24T20:36:08.325Z,100413.06
2022-11-24T20:38:36.222Z,100411.16
2022-11-24T20:41:07.559Z,100414.66
2022-11-24T20:43:37.359Z,100409.47
2022-11-24T20:46:09.261Z,100414.88
2022-11-24T20:48:36.859Z,100416.63
2022-11-24T20:51:15.601Z,100415.78
2022-11-24T20:53:42.872Z,100415.03
2022-11-24T20:56:22.180Z,100406.78
2022-11-24T20:58:49.720Z,100397.19
2022-11-24T21:01:19.272Z,100426.34
2022-11-24T21:03:48.007Z,100435.19
2022-11-24T21:06:15.136Z,100426.41
2022-11-24T21:08:42.837Z,100436.25
2022-11-24T21:11:11.809Z,100434.25
2022-11-24T21:13:40.464Z,100435.31
2022-11-24T21:16:16.493Z,100443.31
2022-11-24T21:18:44.764Z,100447.84
2022-11-24T21:21:12.954Z,100458.34
2022-11-24T21:23:40.732Z,100454.00
2022-11-24T21:26:13.052Z,100453.81
2022-11-24T21:28:45.748Z,100458.28
2022-11-24T21:31:15.213Z,100460.16
2022-11-24T21:33:44.871Z,100458.38
2022-11-24T21:36:14.626Z,100470.75
2022-11-24T21:38:42.734Z,100472.53
2022-11-24T21:41:11.575Z,100477.69
2022-11-24T21:43:38.691Z,100476.75
2022-11-24T21:46:10.991Z,100491.13
2022-11-24T21:48:38.753Z,100486.00
2022-11-24T21:51:07.965Z,100482.88
2022-11-24T21:53:36.424Z,100490.25
2022-11-24T21:56:09.856Z,100485.81
2022-11-24T21:58:36.739Z,100489.28
2022-11-24T22:01:06.075Z,100485.94
2022-11-24T22:03:33.183Z,100496.62
2022-11-24T22:06:00.720Z,100493.34
2022-11-24T22:08:37.232Z,100491.59
2022-11-24T22:11:12.717Z,100494.44
2022-11-24T22:13:40.121Z,100491.72
2022-11-24T22:16:09.363Z,100499.56
2022-11-24T22:18:38.510Z,100485.78
2022-11-24T22:21:06.687Z,100499.62
2022-11-24T22:23:34.944Z,100501.63
2022-11-24T22:26:12.390Z,100509.66
2022-11-24T22:28:39.690Z,100502.69
2022-11-24T22:31:07.937Z,100507.28
2022-11-24T22:33:34.914Z,100513.62
2022-11-24T22:36:02.130Z,100511.97
2022-11-24T22:38:29.870Z,100523.62
2022-11-24T22:41:08.511Z,100521.09
2022-11-24T22:43:36.743Z,100522.91
2022-11-24T22:46:08.482Z,100525.78
2022-11-24T22:48:35.512Z,100527.69
2022-11-24T22:51:06.304Z,100528.56
2022-11-24T22:53:33.620Z,100522.50
2022-11-24T22:56:02.104Z,100525.69
2022-11-24T22:58:30.710Z,100525.81
2022-11-24T23:00:57.834Z,100522.53
2022-11-24T23:03:24.810Z,100529.56
2022-11-24T23:05:51.584Z,100531.41
2022-11-24T23:08:18.430Z,100541.16
2022-11-24T23:10:45.355Z,100533.91
2022-11-24T23:13:12.250Z,100521.41
2022-11-24T23:15:39.037Z,100532.72
2022-11-24T23:18:06.166Z,100519.59
2022-11-24T23:20:34.556Z,100521.16
2022-11-24T23:23:01.376Z,100523.09
2022-11-24T23:25:28.387Z,100524.66
2022-11-24T23:27:55.490Z,100521.22
2022-11-24T23:30:22.548Z,100528.28
2022-11-24T23:32:49.439Z,100528.41
2022-11-24T23:35:16.299Z,100539.25
2022-11-24T23:38:06.607Z,100543.94
2022-11-24T23:40:30.138Z,100548.38
2022-11-24T23:42:57.120Z,100539.44
2022-11-24T23:45:23.897Z,100546.47
2022-11-24T23:47:53.330Z,100550.69
2022-11-24T23:50:20.569Z,100547.34
2022-11-24T23:52:47.860Z,100544.78
2022-11-24T23:55:15.344Z,100556.28
2022-11-24T23:57:42.527Z,100535.75
